Terminal Aerodrome Forecast
Issued by NWS

Home | Current Version | Previous Version | Text Only | Print | Product List | Glossary On
Versions: 1 2 3 4 5 6 7 8 9 10 11 12 13 14 15 16 17 18 19 20 21 22 23 24 25 26 27 28 29 30 31 32 33 34 35 36 37 38 39 40 41 42 43 44 45 46 47 48 49 50
816
FTUS45 KBOU 210151 AAA
TAFAPA
TAF AMD
KAPA 210151Z 2102/2124 32010KT P6SM SCT080 BKN200
     FM210300 27008KT P6SM SCT090 SCT200
     FM210500 19007KT P6SM SCT100 BKN180
     FM211200 23006KT P6SM SCT070 BKN120
     FM211600 34012KT P6SM BKN045 BKN070
     FM211800 03012G18KT P6SM VCSH SCT050 BKN070 PROB30 2118/2122
      -SHRA OVC045=

USA.gov is the U.S. government's official web portal to all federal, state and local government web resources and services.